sensor_id;sensor_type;location;lat;lon;timestamp;pressure;altitude;pressure_sealevel;temperature;humidity
31357;BME280;60001;48.404;11.738;2023-01-16T00:01:20;95338.31;;;2.60;68.65
31357;BME280;60001;48.404;11.738;2023-01-16T00:02:52;95328.47;;;2.62;69.10
31357;BME280;60001;48.404;11.738;2023-01-16T00:04:25;95330.94;;;2.57;69.17
31357;BME280;60001;48.404;11.738;2023-01-16T00:05:57;95327.34;;;2.58;68.94
31357;BME280;60001;48.404;11.738;2023-01-16T00:07:28;95328.34;;;2.57;68.51
31357;BME280;60001;48.404;11.738;2023-01-16T00:09:00;95324.50;;;2.59;69.18
31357;BME280;60001;48.404;11.738;2023-01-16T00:10:32;95325.06;;;2.61;68.50
31357;BME280;60001;48.404;11.738;2023-01-16T00:12:04;95330.28;;;2.61;69.14
31357;BME280;60001;48.404;11.738;2023-01-16T00:13:39;95315.66;;;2.60;69.08
31357;BME280;60001;48.404;11.738;2023-01-16T00:15:11;95312.81;;;2.62;68.80
31357;BME280;60001;48.404;11.738;2023-01-16T00:16:41;95312.03;;;2.61;68.61
31357;BME280;60001;48.404;11.738;2023-01-16T00:18:13;95306.03;;;2.61;68.71
31357;BME280;60001;48.404;11.738;2023-01-16T00:19:46;95305.78;;;2.62;68.82
31357;BME280;60001;48.404;11.738;2023-01-16T00:21:18;95306.38;;;2.64;68.98
31357;BME280;60001;48.404;11.738;2023-01-16T00:22:51;95302.97;;;2.64;69.06
31357;BME280;60001;48.404;11.738;2023-01-16T00:24:22;95301.16;;;2.64;68.83
31357;BME280;60001;48.404;11.738;2023-01-16T00:25:55;95300.72;;;2.67;68.99
31357;BME280;60001;48.404;11.738;2023-01-16T00:27:26;95298.66;;;2.69;68.77
31357;BME280;60001;48.404;11.738;2023-01-16T00:28:57;95295.81;;;2.71;68.91
31357;BME280;60001;48.404;11.738;2023-01-16T00:30:29;95300.59;;;2.74;68.73
31357;BME280;60001;48.404;11.738;2023-01-16T00:32:01;95300.38;;;2.75;68.94
31357;BME280;60001;48.404;11.738;2023-01-16T00:33:33;95298.53;;;2.76;68.43
31357;BME280;60001;48.404;11.738;2023-01-16T00:35:07;95296.72;;;2.77;68.70
31357;BME280;60001;48.404;11.738;2023-01-16T00:36:39;95293.81;;;2.73;68.51
31357;BME280;60001;48.404;11.738;2023-01-16T00:38:11;95289.94;;;2.75;68.43
31357;BME280;60001;48.404;11.738;2023-01-16T00:39:42;95290.72;;;2.76;68.59
31357;BME280;60001;48.404;11.738;2023-01-16T00:41:14;95288.91;;;2.77;68.32
31357;BME280;60001;48.404;11.738;2023-01-16T00:42:45;95282.91;;;2.76;68.84
31357;BME280;60001;48.404;11.738;2023-01-16T00:44:17;95278.47;;;2.77;68.77
31357;BME280;60001;48.404;11.738;2023-01-16T00:45:49;95283.69;;;2.77;69.06
31357;BME280;60001;48.404;11.738;2023-01-16T00:47:20;95272.47;;;2.76;68.57
31357;BME280;60001;48.404;11.738;2023-01-16T00:48:52;95265.38;;;2.71;68.97
31357;BME280;60001;48.404;11.738;2023-01-16T00:50:24;95265.91;;;2.73;69.11
31357;BME280;60001;48.404;11.738;2023-01-16T00:51:56;95268.53;;;2.73;69.18
31357;BME280;60001;48.404;11.738;2023-01-16T00:53:27;95271.38;;;2.72;68.85
31357;BME280;60001;48.404;11.738;2023-01-16T00:54:59;95260.94;;;2.72;69.02
31357;BME280;60001;48.404;11.738;2023-01-16T00:56:30;95261.72;;;2.72;69.05
31357;BME280;60001;48.404;11.738;2023-01-16T00:58:03;95254.69;;;2.73;68.74
31357;BME280;60001;48.404;11.738;2023-01-16T00:59:33;95256.28;;;2.74;69.17
31357;BME280;60001;48.404;11.738;2023-01-16T01:01:05;95250.50;;;2.72;69.66
31357;BME280;60001;48.404;11.738;2023-01-16T01:02:37;95253.69;;;2.74;69.09
31357;BME280;60001;48.404;11.738;2023-01-16T01:04:09;95245.84;;;2.74;68.88
31357;BME280;60001;48.404;11.738;2023-01-16T01:05:44;95242.69;;;2.72;69.14
31357;BME280;60001;48.404;11.738;2023-01-16T01:07:15;95234.75;;;2.67;68.40
31357;BME280;60001;48.404;11.738;2023-01-16T01:08:47;95234.53;;;2.68;68.21
31357;BME280;60001;48.404;11.738;2023-01-16T01:10:19;95237.13;;;2.68;68.78
31357;BME280;60001;48.404;11.738;2023-01-16T01:11:50;95238.63;;;2.64;67.87
31357;BME280;60001;48.404;11.738;2023-01-16T01:13:22;95236.81;;;2.65;68.06
31357;BME280;60001;48.404;11.738;2023-01-16T01:14:54;95230.56;;;2.66;68.29
31357;BME280;60001;48.404;11.738;2023-01-16T01:16:25;95241.78;;;2.66;68.01
31357;BME280;60001;48.404;11.738;2023-01-16T01:17:57;95235.44;;;2.51;67.92
31357;BME280;60001;48.404;11.738;2023-01-16T01:19:28;95235.91;;;2.59;67.71
31357;BME280;60001;48.404;11.738;2023-01-16T01:21:02;95232.38;;;2.65;67.52
31357;BME280;60001;48.404;11.738;2023-01-16T01:22:34;95226.59;;;2.63;67.89
31357;BME280;60001;48.404;11.738;2023-01-16T01:24:06;95223.19;;;2.63;67.90
31357;BME280;60001;48.404;11.738;2023-01-16T01:25:38;95220.81;;;2.61;67.90
31357;BME280;60001;48.404;11.738;2023-01-16T01:27:10;95216.50;;;2.67;68.11
31357;BME280;60001;48.404;11.738;2023-01-16T01:28:42;95213.66;;;2.68;67.10
31357;BME280;60001;48.404;11.738;2023-01-16T01:30:14;95213.22;;;2.71;67.72
31357;BME280;60001;48.404;11.738;2023-01-16T01:31:46;95211.97;;;2.74;67.13
31357;BME280;60001;48.404;11.738;2023-01-16T01:33:18;95202.81;;;2.71;67.30
31357;BME280;60001;48.404;11.738;2023-01-16T01:34:49;95203.13;;;2.75;67.28
31357;BME280;60001;48.404;11.738;2023-01-16T01:36:23;95199.25;;;2.78;67.38
31357;BME280;60001;48.404;11.738;2023-01-16T01:37:54;95191.44;;;2.78;67.40
31357;BME280;60001;48.404;11.738;2023-01-16T01:39:26;95190.66;;;2.77;67.18
31357;BME280;60001;48.404;11.738;2023-01-16T01:40:58;95177.97;;;2.69;66.85
31357;BME280;60001;48.404;11.738;2023-01-16T01:42:36;95181.84;;;2.66;67.04
31357;BME280;60001;48.404;11.738;2023-01-16T01:44:44;95188.06;;;2.65;66.79
31357;BME280;60001;48.404;11.738;2023-01-16T01:46:22;95184.69;;;2.65;67.09
31357;BME280;60001;48.404;11.738;2023-01-16T01:48:02;95189.97;;;2.70;67.53
31357;BME280;60001;48.404;11.738;2023-01-16T01:49:34;95184.75;;;2.70;67.33
31357;BME280;60001;48.404;11.738;2023-01-16T01:51:10;95178.31;;;2.72;67.60
31357;BME280;60001;48.404;11.738;2023-01-16T01:52:46;95172.53;;;2.70;67.46
31357;BME280;60001;48.404;11.738;2023-01-16T01:54:21;95177.78;;;2.59;67.70
31357;BME280;60001;48.404;11.738;2023-01-16T01:55:59;95167.25;;;2.54;67.90
31357;BME280;60001;48.404;11.738;2023-01-16T01:57:36;95162.94;;;2.59;68.31
31357;BME280;60001;48.404;11.738;2023-01-16T01:59:19;95162.56;;;2.56;68.17
31357;BME280;60001;48.404;11.738;2023-01-16T02:00:55;95162.50;;;2.51;67.96
31357;BME280;60001;48.404;11.738;2023-01-16T02:02:33;95160.31;;;2.47;68.84
31357;BME280;60001;48.404;11.738;2023-01-16T02:04:10;95144.50;;;2.37;68.67
31357;BME280;60001;48.404;11.738;2023-01-16T02:05:48;95152.50;;;2.47;68.90
31357;BME280;60001;48.404;11.738;2023-01-16T02:07:26;95141.31;;;2.35;69.24
31357;BME280;60001;48.404;11.738;2023-01-16T02:08:59;95140.41;;;2.41;68.61
31357;BME280;60001;48.404;11.738;2023-01-16T02:10:36;95141.53;;;2.45;68.77
31357;BME280;60001;48.404;11.738;2023-01-16T02:12:12;95139.47;;;2.47;68.81
31357;BME280;60001;48.404;11.738;2023-01-16T02:13:43;95136.78;;;2.42;68.63
31357;BME280;60001;48.404;11.738;2023-01-16T02:15:15;95132.03;;;2.39;68.63
31357;BME280;60001;48.404;11.738;2023-01-16T02:16:50;95124.75;;;2.41;68.72
31357;BME280;60001;48.404;11.738;2023-01-16T02:18:42;95130.31;;;2.45;68.98
31357;BME280;60001;48.404;11.738;2023-01-16T02:21:07;95123.84;;;2.47;68.71
31357;BME280;60001;48.404;11.738;2023-01-16T02:27:38;95112.22;;;2.38;68.73
31357;BME280;60001;48.404;11.738;2023-01-16T02:29:34;95109.13;;;2.41;68.70
31357;BME280;60001;48.404;11.738;2023-01-16T02:31:24;95106.09;;;2.44;68.85
31357;BME280;60001;48.404;11.738;2023-01-16T02:33:05;95093.97;;;2.38;68.77
31357;BME280;60001;48.404;11.738;2023-01-16T02:34:56;95093.84;;;2.45;68.27
31357;BME280;60001;48.404;11.738;2023-01-16T02:36:43;95095.97;;;2.48;68.71
31357;BME280;60001;48.404;11.738;2023-01-16T02:38:32;95090.22;;;2.46;68.67
31357;BME280;60001;48.404;11.738;2023-01-16T02:40:19;95080.03;;;2.44;69.10
31357;BME280;60001;48.404;11.738;2023-01-16T02:42:04;95083.88;;;2.42;68.81
31357;BME280;60001;48.404;11.738;2023-01-16T02:43:47;95082.66;;;2.44;69.33
31357;BME280;60001;48.404;11.738;2023-01-16T02:45:28;95077.88;;;2.41;69.05
31357;BME280;60001;48.404;11.738;2023-01-16T02:47:14;95068.47;;;2.40;69.12
31357;BME280;60001;48.404;11.738;2023-01-16T02:48:59;95072.22;;;2.44;69.12
31357;BME280;60001;48.404;11.738;2023-01-16T02:50:40;95062.06;;;2.31;69.13
31357;BME280;60001;48.404;11.738;2023-01-16T02:52:27;95065.09;;;2.40;68.88
31357;BME280;60001;48.404;11.738;2023-01-16T02:54:07;95056.72;;;2.38;68.65
31357;BME280;60001;48.404;11.738;2023-01-16T02:55:46;95055.69;;;2.39;68.58
31357;BME280;60001;48.404;11.738;2023-01-16T02:57:21;95047.63;;;2.40;68.17
31357;BME280;60001;48.404;11.738;2023-01-16T02:58:54;95035.09;;;2.37;68.76
31357;BME280;60001;48.404;11.738;2023-01-16T03:00:28;95040.38;;;2.42;68.44
31357;BME280;60001;48.404;11.738;2023-01-16T03:02:01;95041.41;;;2.41;68.59
31357;BME280;60001;48.404;11.738;2023-01-16T03:03:40;95037.78;;;2.42;68.24
31357;BME280;60001;48.404;11.738;2023-01-16T03:05:13;95036.09;;;2.36;68.01
31357;BME280;60001;48.404;11.738;2023-01-16T03:06:52;95035.41;;;2.41;68.03
31357;BME280;60001;48.404;11.738;2023-01-16T03:08:40;95030.66;;;2.38;68.06
31357;BME280;60001;48.404;11.738;2023-01-16T03:10:32;95030.88;;;2.36;68.27
31357;BME280;60001;48.404;11.738;2023-01-16T03:12:22;95023.06;;;2.36;68.44
31357;BME280;60001;48.404;11.738;2023-01-16T03:14:19;95023.31;;;2.35;68.35
31357;BME280;60001;48.404;11.738;2023-01-16T03:16:04;95017.06;;;2.36;68.90
31357;BME280;60001;48.404;11.738;2023-01-16T03:17:47;95014.69;;;2.34;68.64
31357;BME280;60001;48.404;11.738;2023-01-16T03:19:36;95010.84;;;2.37;68.78
31357;BME280;60001;48.404;11.738;2023-01-16T03:21:20;95011.41;;;2.39;68.44
31357;BME280;60001;48.404;11.738;2023-01-16T03:23:07;95007.78;;;2.40;67.92
31357;BME280;60001;48.404;11.738;2023-01-16T03:24:57;95009.34;;;2.41;68.59
31357;BME280;60001;48.404;11.738;2023-01-16T03:26:36;95001.78;;;2.39;68.79
31357;BME280;60001;48.404;11.738;2023-01-16T03:28:20;94996.47;;;2.34;68.37
31357;BME280;60001;48.404;11.738;2023-01-16T03:29:59;94994.66;;;2.35;68.63
31357;BME280;60001;48.404;11.738;2023-01-16T03:31:45;94989.44;;;2.35;68.78
31357;BME280;60001;48.404;11.738;2023-01-16T03:33:29;94990.94;;;2.31;68.81
31357;BME280;60001;48.404;11.738;2023-01-16T03:35:08;94985.50;;;2.32;69.24
31357;BME280;60001;48.404;11.738;2023-01-16T03:36:46;94982.34;;;2.30;68.86
31357;BME280;60001;48.404;11.738;2023-01-16T03:38:24;94983.91;;;2.31;69.18
31357;BME280;60001;48.404;11.738;2023-01-16T03:40:01;94965.59;;;2.26;68.74
31357;BME280;60001;48.404;11.738;2023-01-16T03:41:38;94972.13;;;2.29;68.55
31357;BME280;60001;48.404;11.738;2023-01-16T03:43:15;94962.06;;;2.32;69.09
31357;BME280;60001;48.404;11.738;2023-01-16T03:44:54;94957.28;;;2.29;69.21
31357;BME280;60001;48.404;11.738;2023-01-16T03:46:31;94960.47;;;2.31;68.27
31357;BME280;60001;48.404;11.738;2023-01-16T03:48:10;94956.75;;;2.27;68.89
31357;BME280;60001;48.404;11.738;2023-01-16T03:49:48;94953.91;;;2.29;69.12
31357;BME280;60001;48.404;11.738;2023-01-16T03:51:26;94947.34;;;2.26;68.66
31357;BME280;60001;48.404;11.738;2023-01-16T03:53:05;94942.38;;;2.25;68.85
31357;BME280;60001;48.404;11.738;2023-01-16T03:54:45;94939.53;;;2.26;69.05
31357;BME280;60001;48.404;11.738;2023-01-16T03:56:23;94936.63;;;2.23;68.78
31357;BME280;60001;48.404;11.738;2023-01-16T03:58:03;94931.41;;;2.23;69.02
31357;BME280;60001;48.404;11.738;2023-01-16T03:59:37;94930.84;;;2.20;68.76
31357;BME280;60001;48.404;11.738;2023-01-16T04:01:22;94926.66;;;2.19;68.99
31357;BME280;60001;48.404;11.738;2023-01-16T04:03:04;94924.84;;;2.20;68.87
31357;BME280;60001;48.404;11.738;2023-01-16T04:04:43;94920.41;;;2.20;69.51
31357;BME280;60001;48.404;11.738;2023-01-16T04:06:22;94921.44;;;2.19;69.24
31357;BME280;60001;48.404;11.738;2023-01-16T04:08:01;94917.03;;;2.20;69.04
31357;BME280;60001;48.404;11.738;2023-01-16T04:09:40;94917.25;;;2.18;69.80
31357;BME280;60001;48.404;11.738;2023-01-16T04:11:19;94915.44;;;2.19;69.20
31357;BME280;60001;48.404;11.738;2023-01-16T04:12:58;94910.72;;;2.16;69.28
31357;BME280;60001;48.404;11.738;2023-01-16T04:14:34;94907.28;;;2.15;69.71
31357;BME280;60001;48.404;11.738;2023-01-16T04:16:09;94898.38;;;2.11;69.11
31357;BME280;60001;48.404;11.738;2023-01-16T04:17:44;94885.97;;;2.02;69.23
31357;BME280;60001;48.404;11.738;2023-01-16T04:19:19;94882.00;;;1.99;69.89
31357;BME280;60001;48.404;11.738;2023-01-16T04:20:52;94877.84;;;1.98;69.86
31357;BME280;60001;48.404;11.738;2023-01-16T04:22:26;94870.50;;;1.95;69.69
31357;BME280;60001;48.404;11.738;2023-01-16T04:23:59;94858.41;;;1.89;69.62
31357;BME280;60001;48.404;11.738;2023-01-16T04:25:32;94865.19;;;1.90;70.00
31357;BME280;60001;48.404;11.738;2023-01-16T04:27:04;94854.56;;;1.80;69.77
31357;BME280;60001;48.404;11.738;2023-01-16T04:28:36;94853.34;;;1.82;69.76
31357;BME280;60001;48.404;11.738;2023-01-16T04:30:07;94848.59;;;1.79;70.25
31357;BME280;60001;48.404;11.738;2023-01-16T04:31:39;94840.69;;;1.74;70.79
31357;BME280;60001;48.404;11.738;2023-01-16T04:33:14;94838.31;;;1.73;70.83
31357;BME280;60001;48.404;11.738;2023-01-16T04:34:46;94813.59;;;1.58;70.27
31357;BME280;60001;48.404;11.738;2023-01-16T04:36:18;94828.81;;;1.67;70.51
31357;BME280;60001;48.404;11.738;2023-01-16T04:37:50;94840.72;;;1.62;71.14
31357;BME280;60001;48.404;11.738;2023-01-16T04:39:22;94827.63;;;1.57;71.04
31357;BME280;60001;48.404;11.738;2023-01-16T04:40:54;94818.25;;;1.56;71.53
31357;BME280;60001;48.404;11.738;2023-01-16T04:42:26;94815.28;;;1.53;72.09
31357;BME280;60001;48.404;11.738;2023-01-16T04:43:58;94815.41;;;1.58;72.29
31357;BME280;60001;48.404;11.738;2023-01-16T04:45:30;94805.22;;;1.56;72.12
31357;BME280;60001;48.404;11.738;2023-01-16T04:47:02;94808.31;;;1.53;72.01
31357;BME280;60001;48.404;11.738;2023-01-16T04:48:34;94810.69;;;1.55;72.13
31357;BME280;60001;48.404;11.738;2023-01-16T04:50:07;94809.97;;;1.59;71.67
31357;BME280;60001;48.404;11.738;2023-01-16T04:51:39;94805.09;;;1.63;71.80
31357;BME280;60001;48.404;11.738;2023-01-16T04:53:11;94810.84;;;1.65;71.50
31357;BME280;60001;48.404;11.738;2023-01-16T04:54:44;94799.09;;;1.62;70.65
31357;BME280;60001;48.404;11.738;2023-01-16T04:56:16;94804.19;;;1.69;71.01
31357;BME280;60001;48.404;11.738;2023-01-16T04:57:47;94794.78;;;1.68;71.18
31357;BME280;60001;48.404;11.738;2023-01-16T04:59:19;94791.84;;;1.64;71.12
31357;BME280;60001;48.404;11.738;2023-01-16T05:00:53;94789.00;;;1.66;70.54
31357;BME280;60001;48.404;11.738;2023-01-16T05:02:25;94778.75;;;1.59;71.45
31357;BME280;60001;48.404;11.738;2023-01-16T05:03:57;94778.06;;;1.64;71.61
31357;BME280;60001;48.404;11.738;2023-01-16T05:05:28;94776.25;;;1.64;70.90
31357;BME280;60001;48.404;11.738;2023-01-16T05:07:00;94779.09;;;1.63;70.83
31357;BME280;60001;48.404;11.738;2023-01-16T05:08:32;94775.44;;;1.64;70.99
31357;BME280;60001;48.404;11.738;2023-01-16T05:10:05;94772.53;;;1.60;71.15
31357;BME280;60001;48.404;11.738;2023-01-16T05:11:37;94769.38;;;1.58;70.94
31357;BME280;60001;48.404;11.738;2023-01-16T05:13:08;94769.59;;;1.57;70.51
31357;BME280;60001;48.404;11.738;2023-01-16T05:14:40;94771.66;;;1.55;70.81
31357;BME280;60001;48.404;11.738;2023-01-16T05:16:12;94756.44;;;1.47;71.37
31357;BME280;60001;48.404;11.738;2023-01-16T05:17:45;94772.88;;;1.52;70.83
31357;BME280;60001;48.404;11.738;2023-01-16T05:19:18;94762.16;;;1.49;71.70
31357;BME280;60001;48.404;11.738;2023-01-16T05:20:50;94749.16;;;1.49;71.41
31357;BME280;60001;48.404;11.738;2023-01-16T05:22:21;94748.38;;;1.48;71.53
31357;BME280;60001;48.404;11.738;2023-01-16T05:23:53;94754.13;;;1.50;71.67
31357;BME280;60001;48.404;11.738;2023-01-16T05:25:26;94751.53;;;1.50;71.16
31357;BME280;60001;48.404;11.738;2023-01-16T05:26:58;94746.81;;;1.47;71.64
31357;BME280;60001;48.404;11.738;2023-01-16T05:28:31;94743.63;;;1.45;71.63
31357;BME280;60001;48.404;11.738;2023-01-16T05:30:04;94741.03;;;1.45;71.76
31357;BME280;60001;48.404;11.738;2023-01-16T05:31:36;94732.22;;;1.46;71.73
31357;BME280;60001;48.404;11.738;2023-01-16T05:33:08;94736.63;;;1.46;71.73
31357;BME280;60001;48.404;11.738;2023-01-16T05:34:39;94735.50;;;1.42;71.33
31357;BME280;60001;48.404;11.738;2023-01-16T05:36:11;94720.94;;;1.41;71.75
31357;BME280;60001;48.404;11.738;2023-01-16T05:37:43;94728.25;;;1.44;71.42
31357;BME280;60001;48.404;11.738;2023-01-16T05:39:15;94720.69;;;1.42;71.28
31357;BME280;60001;48.404;11.738;2023-01-16T05:40:48;94713.34;;;1.39;71.69
31357;BME280;60001;48.404;11.738;2023-01-16T05:42:19;94710.69;;;1.34;72.19
31357;BME280;60001;48.404;11.738;2023-01-16T05:43:52;94703.56;;;1.29;71.64
31357;BME280;60001;48.404;11.738;2023-01-16T05:45:23;94705.72;;;1.32;71.73
31357;BME280;60001;48.404;11.738;2023-01-16T05:46:55;94699.63;;;1.27;72.46
31357;BME280;60001;48.404;11.738;2023-01-16T05:48:27;94702.66;;;1.24;72.49
31357;BME280;60001;48.404;11.738;2023-01-16T05:50:01;94691.97;;;1.20;72.28
31357;BME280;60001;48.404;11.738;2023-01-16T05:51:34;94684.84;;;1.16;72.08
31357;BME280;60001;48.404;11.738;2023-01-16T05:53:05;94688.72;;;1.13;72.31
31357;BME280;60001;48.404;11.738;2023-01-16T05:54:37;94692.53;;;1.10;72.98
31357;BME280;60001;48.404;11.738;2023-01-16T05:56:12;94684.69;;;1.05;73.47
31357;BME280;60001;48.404;11.738;2023-01-16T05:57:44;94683.41;;;1.08;72.88
31357;BME280;60001;48.404;11.738;2023-01-16T05:59:16;94681.38;;;1.10;73.72
31357;BME280;60001;48.404;11.738;2023-01-16T06:00:48;94685.88;;;1.15;73.27
31357;BME280;60001;48.404;11.738;2023-01-16T06:02:20;94673.66;;;1.15;73.44
31357;BME280;60001;48.404;11.738;2023-01-16T06:03:52;94667.69;;;1.15;73.39
31357;BME280;60001;48.404;11.738;2023-01-16T06:05:24;94674.13;;;1.12;73.59
31357;BME280;60001;48.404;11.738;2023-01-16T06:06:56;94662.63;;;1.08;73.83
31357;BME280;60001;48.404;11.738;2023-01-16T06:08:28;94661.59;;;1.09;73.27
31357;BME280;60001;48.404;11.738;2023-01-16T06:10:02;94652.13;;;1.03;74.23
31357;BME280;60001;48.404;11.738;2023-01-16T06:11:36;94660.56;;;1.10;74.32
31357;BME280;60001;48.404;11.738;2023-01-16T06:13:07;94653.56;;;1.10;74.03
31357;BME280;60001;48.404;11.738;2023-01-16T06:14:39;94651.19;;;1.09;74.21
31357;BME280;60001;48.404;11.738;2023-01-16T06:16:11;94654.59;;;1.09;73.38
31357;BME280;60001;48.404;11.738;2023-01-16T06:17:43;94653.00;;;1.08;73.96
31357;BME280;60001;48.404;11.738;2023-01-16T06:19:15;94651.75;;;1.11;74.31
31357;BME280;60001;48.404;11.738;2023-01-16T06:20:47;94647.56;;;1.10;74.24
31357;BME280;60001;48.404;11.738;2023-01-16T06:22:18;94643.41;;;1.09;73.71
31357;BME280;60001;48.404;11.738;2023-01-16T06:23:50;94633.13;;;1.02;73.17
31357;BME280;60001;48.404;11.738;2023-01-16T06:25:22;94641.72;;;1.03;73.44
31357;BME280;60001;48.404;11.738;2023-01-16T06:26:55;94632.34;;;1.02;73.74
31357;BME280;60001;48.404;11.738;2023-01-16T06:28:27;94621.97;;;1.02;73.81
31357;BME280;60001;48.404;11.738;2023-01-16T06:29:59;94621.66;;;0.98;73.54
31357;BME280;60001;48.404;11.738;2023-01-16T06:31:31;94617.94;;;0.94;74.17
31357;BME280;60001;48.404;11.738;2023-01-16T06:33:02;94607.22;;;0.91;74.68
31357;BME280;60001;48.404;11.738;2023-01-16T06:34:34;94592.63;;;0.90;74.86
31357;BME280;60001;48.404;11.738;2023-01-16T06:36:06;94593.09;;;0.87;74.26
31357;BME280;60001;48.404;11.738;2023-01-16T06:37:38;94586.09;;;0.87;74.78
31357;BME280;60001;48.404;11.738;2023-01-16T06:39:12;94585.41;;;0.92;74.96
31357;BME280;60001;48.404;11.738;2023-01-16T06:59:08;94533.75;;;0.95;74.32
31357;BME280;60001;48.404;11.738;2023-01-16T07:00:40;94532.97;;;0.95;75.08
31357;BME280;60001;48.404;11.738;2023-01-16T07:02:13;94525.66;;;0.92;75.29
31357;BME280;60001;48.404;11.738;2023-01-16T07:03:45;94524.06;;;0.91;75.09
31357;BME280;60001;48.404;11.738;2023-01-16T07:05:17;94524.28;;;0.89;75.43
31357;BME280;60001;48.404;11.738;2023-01-16T07:06:49;94520.91;;;0.89;75.46
31357;BME280;60001;48.404;11.738;2023-01-16T07:08:22;94516.50;;;0.89;74.81
31357;BME280;60001;48.404;11.738;2023-01-16T07:09:53;94511.53;;;0.88;75.61
31357;BME280;60001;48.404;11.738;2023-01-16T07:11:26;94512.31;;;0.88;75.22
31357;BME280;60001;48.404;11.738;2023-01-16T07:12:58;94500.13;;;0.89;75.34
31357;BME280;60001;48.404;11.738;2023-01-16T07:14:31;94505.06;;;0.90;75.69
31357;BME280;60001;48.404;11.738;2023-01-16T07:16:21;94502.47;;;0.90;75.30
31357;BME280;60001;48.404;11.738;2023-01-16T07:18:13;94494.22;;;0.93;75.38
31357;BME280;60001;48.404;11.738;2023-01-16T07:20:03;94489.03;;;0.93;75.70
31357;BME280;60001;48.404;11.738;2023-01-16T07:21:49;94486.19;;;0.95;75.22
31357;BME280;60001;48.404;11.738;2023-01-16T07:23:42;94479.50;;;0.99;75.99
31357;BME280;60001;48.404;11.738;2023-01-16T07:25:19;94472.50;;;0.99;75.10
31357;BME280;60001;48.404;11.738;2023-01-16T07:26:56;94472.00;;;1.02;75.78
31357;BME280;60001;48.404;11.738;2023-01-16T07:28:31;94470.19;;;1.03;75.92
31357;BME280;60001;48.404;11.738;2023-01-16T07:30:06;94459.75;;;0.98;75.70
31357;BME280;60001;48.404;11.738;2023-01-16T07:31:40;94466.34;;;1.05;75.63
31357;BME280;60001;48.404;11.738;2023-01-16T07:33:12;94455.34;;;0.98;75.71
31357;BME280;60001;48.404;11.738;2023-01-16T07:34:44;94459.34;;;1.06;75.67
31357;BME280;60001;48.404;11.738;2023-01-16T07:36:17;94451.94;;;1.15;75.34
31357;BME280;60001;48.404;11.738;2023-01-16T07:37:48;94450.28;;;1.08;75.59
31357;BME280;60001;48.404;11.738;2023-01-16T07:39:22;94437.91;;;1.16;75.37
31357;BME280;60001;48.404;11.738;2023-01-16T07:40:54;94441.91;;;1.23;74.87
31357;BME280;60001;48.404;11.738;2023-01-16T07:42:25;94431.84;;;1.27;75.48
31357;BME280;60001;48.404;11.738;2023-01-16T07:43:57;94433.47;;;1.33;75.33
31357;BME280;60001;48.404;11.738;2023-01-16T07:45:31;94431.25;;;1.42;75.81
31357;BME280;60001;48.404;11.738;2023-01-16T07:47:02;94423.75;;;1.45;75.45
31357;BME280;60001;48.404;11.738;2023-01-16T07:48:34;94413.81;;;1.42;75.06
31357;BME280;60001;48.404;11.738;2023-01-16T07:50:07;94418.94;;;1.54;74.72
31357;BME280;60001;48.404;11.738;2023-01-16T07:51:38;94414.34;;;1.61;75.08
31357;BME280;60001;48.404;11.738;2023-01-16T07:53:10;94399.38;;;1.51;74.26
31357;BME280;60001;48.404;11.738;2023-01-16T07:54:42;94411.25;;;1.64;74.16
31357;BME280;60001;48.404;11.738;2023-01-16T07:56:14;94401.44;;;1.71;74.50
31357;BME280;60001;48.404;11.738;2023-01-16T07:57:46;94406.16;;;1.74;74.07
31357;BME280;60001;48.404;11.738;2023-01-16T07:59:17;94391.88;;;1.77;74.33
31357;BME280;60001;48.404;11.738;2023-01-16T08:00:53;94396.53;;;1.75;73.86
31357;BME280;60001;48.404;11.738;2023-01-16T08:02:25;94393.25;;;1.84;74.28
31357;BME280;60001;48.404;11.738;2023-01-16T08:03:57;94384.47;;;1.90;74.68
31357;BME280;60001;48.404;11.738;2023-01-16T08:05:29;94386.84;;;1.92;74.10
31357;BME280;60001;48.404;11.738;2023-01-16T08:07:01;94369.53;;;2.03;74.23
31357;BME280;60001;48.404;11.738;2023-01-16T08:08:32;94366.66;;;2.04;73.81
31357;BME280;60001;48.404;11.738;2023-01-16T08:10:05;94365.44;;;2.12;73.22
31357;BME280;60001;48.404;11.738;2023-01-16T08:11:37;94362.91;;;2.22;73.38
31357;BME280;60001;48.404;11.738;2023-01-16T08:13:09;94356.25;;;2.31;72.49
31357;BME280;60001;48.404;11.738;2023-01-16T08:14:41;94354.22;;;2.38;72.30
31357;BME280;60001;48.404;11.738;2023-01-16T08:16:14;94349.84;;;2.44;71.44
31357;BME280;60001;48.404;11.738;2023-01-16T08:17:46;94342.53;;;2.41;71.27
31357;BME280;60001;48.404;11.738;2023-01-16T08:19:18;94349.06;;;2.43;71.10
31357;BME280;60001;48.404;11.738;2023-01-16T08:20:50;94344.44;;;2.51;71.26
31357;BME280;60001;48.404;11.738;2023-01-16T08:22:22;94343.41;;;2.52;70.90
31357;BME280;60001;48.404;11.738;2023-01-16T08:23:53;94339.22;;;2.51;70.66
31357;BME280;60001;48.404;11.738;2023-01-16T08:25:25;94322.00;;;2.50;70.70
31357;BME280;60001;48.404;11.738;2023-01-16T08:26:57;94333.25;;;2.55;70.79
31357;BME280;60001;48.404;11.738;2023-01-16T08:28:29;94331.47;;;2.61;69.68
31357;BME280;60001;48.404;11.738;2023-01-16T08:30:01;94331.78;;;2.69;69.82
31357;BME280;60001;48.404;11.738;2023-01-16T08:31:36;94312.28;;;2.72;69.57
31357;BME280;60001;48.404;11.738;2023-01-16T08:33:08;94314.94;;;2.82;69.42
31357;BME280;60001;48.404;11.738;2023-01-16T08:34:41;94302.91;;;2.76;68.98
31357;BME280;60001;48.404;11.738;2023-01-16T08:36:14;94303.28;;;2.95;68.56
31357;BME280;60001;48.404;11.738;2023-01-16T08:37:50;94296.06;;;3.12;67.90
31357;BME280;60001;48.404;11.738;2023-01-16T08:39:22;94300.78;;;3.15;67.84
31357;BME280;60001;48.404;11.738;2023-01-16T08:40:55;94288.53;;;3.16;67.73
31357;BME280;60001;48.404;11.738;2023-01-16T08:42:27;94288.03;;;3.24;67.41
31357;BME280;60001;48.404;11.738;2023-01-16T08:44:16;94283.38;;;3.31;66.79
31357;BME280;60001;48.404;11.738;2023-01-16T08:46:17;94282.63;;;3.41;66.29
31357;BME280;60001;48.404;11.738;2023-01-16T08:48:10;94271.94;;;3.47;66.19